createdAt,value
2023-05-22T00:00:26.685Z,60.49
2023-05-22T00:03:24.480Z,60.63
2023-05-22T00:06:12.181Z,60.53
2023-05-22T00:08:58.625Z,60.42
2023-05-22T00:11:45.165Z,60.84
2023-05-22T00:14:31.669Z,61.26
2023-05-22T00:17:18.609Z,61.08
2023-05-22T00:20:10.770Z,61.00
2023-05-22T00:22:58.039Z,61.16
2023-05-22T00:25:44.623Z,61.62
2023-05-22T00:28:31.213Z,62.11
2023-05-22T00:31:17.848Z,61.98
2023-05-22T00:34:04.254Z,61.94
2023-05-22T00:36:50.931Z,62.39
2023-05-22T00:39:38.383Z,61.93
2023-05-22T00:42:24.641Z,62.07
2023-05-22T00:45:12.067Z,62.11
2023-05-22T00:47:58.404Z,61.92
2023-05-22T00:50:45.398Z,62.17
2023-05-22T00:53:31.802Z,62.01
2023-05-22T00:56:19.507Z,62.05
2023-05-22T00:59:06.172Z,62.09
2023-05-22T01:01:52.798Z,62.22
2023-05-22T01:04:39.632Z,62.28
2023-05-22T01:07:26.560Z,62.37
2023-05-22T01:10:13.079Z,62.64
2023-05-22T01:13:26.312Z,62.70
2023-05-22T01:16:30.118Z,62.82
2023-05-22T01:19:35.867Z,62.93
2023-05-22T01:22:41.026Z,63.48
2023-05-22T01:25:55.158Z,63.62
2023-05-22T01:29:03.913Z,63.49
2023-05-22T01:31:52.856Z,63.35
2023-05-22T01:34:41.574Z,63.46
2023-05-22T01:37:28.734Z,63.16
2023-05-22T01:40:16.887Z,63.19
2023-05-22T01:43:03.446Z,63.41
2023-05-22T01:45:50.433Z,63.06
2023-05-22T01:48:36.828Z,63.25
2023-05-22T01:52:10.104Z,63.50
2023-05-22T01:55:09.733Z,63.21
2023-05-22T01:58:19.276Z,63.65
2023-05-22T02:01:10.224Z,64.08
2023-05-22T02:03:58.961Z,63.96
2023-05-22T02:06:46.807Z,63.69
2023-05-22T02:09:35.400Z,63.75
2023-05-22T02:12:23.363Z,63.78
2023-05-22T02:15:10.149Z,64.18
2023-05-22T02:17:59.956Z,64.26
2023-05-22T02:20:46.764Z,64.34
2023-05-22T02:23:33.168Z,64.61
2023-05-22T02:26:19.676Z,64.50
2023-05-22T02:29:06.344Z,64.80
2023-05-22T02:31:54.755Z,65.10
2023-05-22T02:34:42.203Z,65.04
2023-05-22T02:37:29.168Z,64.98
2023-05-22T02:40:16.056Z,65.14
2023-05-22T02:43:02.397Z,65.03
2023-05-22T02:45:49.194Z,65.22
2023-05-22T02:48:37.030Z,65.03
2023-05-22T02:51:23.341Z,65.22
2023-05-22T02:54:10.038Z,65.24
2023-05-22T02:56:56.968Z,65.60
2023-05-22T02:59:44.418Z,65.73
2023-05-22T03:02:32.715Z,65.61
2023-05-22T03:05:19.649Z,65.61
2023-05-22T03:08:06.750Z,65.69
2023-05-22T03:10:53.272Z,65.99
2023-05-22T03:13:39.670Z,65.64
2023-05-22T03:16:27.049Z,65.67
2023-05-22T03:19:16.410Z,65.28
2023-05-22T03:22:03.126Z,65.70
2023-05-22T03:24:49.787Z,65.55
2023-05-22T03:27:36.429Z,65.73
2023-05-22T03:30:23.360Z,65.44
2023-05-22T03:33:18.864Z,65.58
2023-05-22T03:36:06.193Z,65.65
2023-05-22T03:38:53.003Z,65.51
2023-05-22T03:41:39.122Z,65.33
2023-05-22T03:44:25.529Z,64.97
2023-05-22T03:47:13.147Z,65.19
2023-05-22T03:49:59.517Z,64.91
2023-05-22T03:52:47.898Z,65.30
2023-05-22T03:55:34.713Z,65.15
2023-05-22T03:58:25.494Z,64.88
2023-05-22T04:01:13.754Z,64.86
2023-05-22T04:04:00.914Z,64.41
2023-05-22T04:06:47.365Z,64.40
2023-05-22T04:09:35.739Z,64.20
2023-05-22T04:12:22.309Z,63.68
2023-05-22T04:15:09.468Z,63.06
2023-05-22T04:17:55.673Z,62.76
2023-05-22T04:20:42.938Z,62.47
2023-05-22T04:23:29.459Z,61.98
2023-05-22T04:26:18.111Z,61.67
2023-05-22T04:29:06.545Z,61.38
2023-05-22T04:31:55.465Z,61.09
2023-05-22T04:34:42.302Z,60.59
2023-05-22T04:37:31.890Z,60.17
2023-05-22T04:40:18.833Z,60.13
2023-05-22T04:43:07.757Z,59.71
2023-05-22T04:45:54.991Z,59.55
2023-05-22T04:48:42.058Z,59.17
2023-05-22T04:51:31.088Z,58.98
2023-05-22T04:54:17.713Z,58.83
2023-05-22T04:57:05.042Z,58.61
2023-05-22T04:59:54.698Z,58.54
2023-05-22T05:02:41.973Z,58.22
2023-05-22T05:05:28.474Z,58.09
2023-05-22T05:08:16.838Z,57.78
2023-05-22T05:11:03.504Z,57.64
2023-05-22T05:13:49.974Z,57.41
2023-05-22T05:16:36.667Z,57.04
2023-05-22T05:19:23.632Z,56.77
2023-05-22T05:22:10.495Z,56.51
2023-05-22T05:24:57.697Z,56.12
2023-05-22T05:27:44.623Z,55.76
2023-05-22T05:30:32.112Z,55.43
2023-05-22T05:33:41.938Z,54.89
2023-05-22T05:36:34.806Z,54.60
2023-05-22T05:39:21.290Z,54.27
2023-05-22T05:42:08.081Z,53.93
2023-05-22T05:44:54.973Z,53.55
2023-05-22T05:47:43.912Z,53.15
2023-05-22T05:50:30.363Z,52.86
2023-05-22T05:53:16.873Z,52.55
2023-05-22T05:56:09.288Z,52.07
2023-05-22T05:58:57.769Z,51.69
2023-05-22T06:02:10.180Z,51.23
2023-05-22T06:04:56.860Z,50.75
2023-05-22T06:07:43.770Z,50.35
2023-05-22T06:10:31.156Z,49.70
2023-05-22T06:13:22.507Z,49.44
2023-05-22T06:16:08.978Z,48.82
2023-05-22T06:18:57.309Z,48.13
2023-05-22T06:21:43.954Z,47.27
2023-05-22T06:24:32.514Z,46.76
2023-05-22T06:27:24.199Z,46.15
2023-05-22T06:30:11.142Z,45.61
2023-05-22T06:32:58.702Z,45.09
2023-05-22T06:35:45.493Z,44.46
2023-05-22T06:38:32.675Z,43.82
2023-05-22T06:41:19.208Z,43.54
2023-05-22T06:44:06.573Z,43.25
2023-05-22T06:46:57.404Z,42.83
2023-05-22T06:49:44.699Z,42.13
2023-05-22T06:52:32.103Z,42.01
2023-05-22T06:55:19.053Z,41.13
2023-05-22T06:58:20.411Z,40.93
2023-05-22T07:01:07.883Z,40.51
2023-05-22T07:04:05.068Z,39.79
2023-05-22T07:06:56.545Z,39.43
2023-05-22T07:09:43.251Z,38.74
2023-05-22T07:12:29.777Z,38.03
2023-05-22T07:15:16.975Z,38.11
2023-05-22T07:18:09.746Z,37.89
2023-05-22T07:20:58.815Z,37.34
2023-05-22T07:23:45.546Z,36.70
2023-05-22T07:26:32.233Z,36.85
2023-05-22T07:29:23.685Z,36.66
2023-05-22T07:32:12.698Z,36.13
2023-05-22T07:34:59.279Z,35.39
2023-05-22T07:37:46.291Z,34.74
2023-05-22T07:40:32.975Z,34.64
2023-05-22T07:43:19.649Z,34.36
2023-05-22T07:46:06.489Z,34.23
2023-05-22T07:48:56.667Z,33.84
2023-05-22T07:51:43.279Z,33.79
2023-05-22T07:54:30.662Z,33.57
2023-05-22T07:57:17.798Z,32.63
2023-05-22T08:00:13.686Z,32.39
2023-05-22T08:03:00.824Z,32.26
2023-05-22T08:05:47.500Z,31.75
2023-05-22T08:08:34.693Z,31.70
2023-05-22T08:11:21.656Z,31.31
2023-05-22T08:14:09.056Z,30.79
2023-05-22T08:16:57.159Z,30.90
2023-05-22T08:19:43.851Z,30.72
2023-05-22T08:22:31.372Z,30.40
2023-05-22T08:25:17.979Z,30.18
2023-05-22T08:28:04.594Z,30.56
2023-05-22T08:30:52.020Z,30.30
2023-05-22T08:33:38.822Z,29.86
2023-05-22T08:36:25.501Z,30.03
2023-05-22T08:39:12.243Z,29.94
2023-05-22T08:41:59.448Z,29.35
2023-05-22T08:44:47.621Z,29.30
2023-05-22T08:47:36.831Z,29.23
2023-05-22T08:50:24.693Z,29.03
2023-05-22T08:53:15.673Z,28.11
2023-05-22T08:56:06.883Z,27.55
2023-05-22T08:58:53.859Z,27.44
2023-05-22T09:01:40.811Z,26.90
2023-05-22T09:04:28.654Z,26.96
2023-05-22T09:07:15.376Z,26.90
2023-05-22T09:10:05.292Z,25.81
2023-05-22T09:13:01.907Z,25.03
2023-05-22T09:15:48.154Z,25.01
2023-05-22T09:18:34.668Z,24.67
2023-05-22T09:21:30.152Z,24.46
2023-05-22T09:24:17.423Z,24.49
2023-05-22T09:27:06.718Z,23.85
2023-05-22T09:29:59.127Z,23.63
2023-05-22T09:32:48.797Z,24.25
2023-05-22T09:35:39.579Z,24.13
2023-05-22T09:38:28.804Z,24.04
2023-05-22T09:41:22.298Z,23.46
2023-05-22T09:44:16.094Z,23.29
2023-05-22T09:47:03.815Z,22.50
2023-05-22T09:49:50.131Z,22.89
2023-05-22T09:52:37.775Z,23.18
2023-05-22T09:55:24.861Z,23.14
2023-05-22T09:58:13.768Z,22.69
2023-05-22T10:01:01.526Z,22.69
2023-05-22T10:03:54.392Z,22.84
2023-05-22T10:06:43.128Z,23.14
2023-05-22T10:09:36.078Z,22.76
2023-05-22T10:12:23.567Z,22.90
2023-05-22T10:15:13.136Z,22.63
2023-05-22T10:18:00.853Z,23.20
2023-05-22T10:20:48.441Z,22.53
2023-05-22T10:23:35.204Z,22.43
2023-05-22T10:26:23.040Z,22.85
2023-05-22T10:29:14.927Z,22.72
2023-05-22T10:32:08.149Z,22.55
2023-05-22T10:35:16.685Z,22.23
2023-05-22T10:38:34.044Z,22.06
2023-05-22T10:41:21.380Z,22.46
2023-05-22T10:44:08.205Z,22.31
2023-05-22T10:46:54.842Z,23.03
2023-05-22T10:49:46.869Z,22.87
2023-05-22T10:52:34.587Z,22.77
2023-05-22T10:55:22.681Z,22.80
2023-05-22T10:58:16.492Z,22.95
2023-05-22T11:01:19.391Z,22.39
2023-05-22T11:04:08.211Z,22.33
2023-05-22T11:07:06.806Z,22.70
2023-05-22T11:10:00.216Z,22.82
2023-05-22T11:12:46.719Z,22.62
2023-05-22T11:15:33.485Z,22.82
2023-05-22T11:18:20.011Z,22.51
2023-05-22T11:21:09.998Z,22.54
2023-05-22T11:24:01.124Z,22.53
2023-05-22T11:27:02.688Z,22.79
2023-05-22T11:29:49.874Z,22.37
2023-05-22T11:32:41.045Z,22.13
2023-05-22T11:35:28.695Z,21.87
2023-05-22T11:38:15.768Z,22.24
2023-05-22T11:41:02.285Z,22.17
2023-05-22T11:43:48.890Z,22.23
2023-05-22T11:46:35.713Z,22.25
2023-05-22T11:49:24.122Z,22.43
2023-05-22T11:52:11.158Z,22.11
2023-05-22T11:54:57.976Z,22.48
2023-05-22T11:57:44.509Z,21.75
2023-05-22T12:00:31.797Z,21.67
2023-05-22T12:03:18.708Z,21.89
2023-05-22T12:06:05.723Z,22.22
2023-05-22T12:08:52.466Z,22.61
2023-05-22T12:11:39.337Z,22.49
2023-05-22T12:14:31.330Z,22.11
2023-05-22T12:17:18.168Z,21.74
2023-05-22T12:20:06.296Z,20.85
2023-05-22T12:22:56.241Z,20.00
2023-05-22T12:25:43.259Z,19.37
2023-05-22T12:28:32.533Z,18.26
2023-05-22T12:31:25.396Z,17.49
2023-05-22T12:34:12.366Z,16.88
2023-05-22T12:36:59.057Z,16.27
2023-05-22T12:39:59.835Z,15.96
2023-05-22T12:42:46.301Z,15.62
2023-05-22T12:45:33.066Z,15.02
2023-05-22T12:48:19.968Z,14.89
2023-05-22T12:51:06.508Z,14.12
2023-05-22T12:53:53.061Z,13.35
2023-05-22T12:56:39.518Z,12.69
2023-05-22T12:59:26.069Z,13.60
2023-05-22T13:02:12.408Z,13.56
2023-05-22T13:04:59.207Z,13.43
2023-05-22T13:07:45.700Z,13.79
2023-05-22T13:10:32.246Z,14.62
2023-05-22T13:13:18.527Z,14.84
2023-05-22T13:16:05.306Z,15.43
2023-05-22T13:18:51.696Z,15.57
2023-05-22T13:21:38.165Z,14.85
2023-05-22T13:24:24.550Z,14.00
2023-05-22T13:27:11.242Z,14.02
2023-05-22T13:29:57.920Z,14.73
2023-05-22T13:32:44.658Z,14.58
2023-05-22T13:35:31.243Z,15.20
2023-05-22T13:38:17.697Z,15.18
2023-05-22T13:41:04.373Z,14.19
2023-05-22T13:43:51.266Z,13.35
2023-05-22T13:46:40.616Z,13.20
2023-05-22T13:49:28.027Z,12.89
2023-05-22T13:52:14.530Z,13.16
2023-05-22T13:55:01.129Z,12.67
2023-05-22T13:57:47.472Z,13.30
2023-05-22T14:00:33.953Z,13.99
2023-05-22T14:03:20.877Z,14.90
2023-05-22T14:06:07.673Z,15.77
2023-05-22T14:08:54.551Z,16.33
2023-05-22T14:11:41.121Z,16.68
2023-05-22T14:14:27.770Z,16.12
2023-05-22T14:17:14.306Z,14.72
2023-05-22T14:20:01.255Z,13.70
2023-05-22T14:22:57.170Z,12.80
2023-05-22T14:25:45.244Z,12.83
2023-05-22T14:28:32.241Z,13.66
2023-05-22T14:31:18.973Z,14.29
2023-05-22T14:34:05.986Z,14.98
2023-05-22T14:36:52.766Z,15.85
2023-05-22T14:39:39.465Z,16.81
2023-05-22T14:42:25.883Z,16.88
2023-05-22T14:45:12.815Z,15.95
2023-05-22T14:47:59.096Z,14.68
2023-05-22T14:50:47.539Z,13.71
2023-05-22T14:53:34.105Z,14.07
2023-05-22T14:56:21.672Z,14.32
2023-05-22T14:59:08.190Z,14.76
2023-05-22T15:01:54.677Z,15.08
2023-05-22T15:04:41.299Z,14.21
2023-05-22T15:07:39.648Z,13.99
2023-05-22T15:10:30.178Z,13.61
2023-05-22T15:13:16.643Z,13.12
2023-05-22T15:16:03.228Z,12.27
2023-05-22T15:18:50.192Z,12.12
2023-05-22T15:21:36.754Z,12.69
2023-05-22T15:24:23.395Z,13.68
2023-05-22T15:27:12.933Z,14.57
2023-05-22T15:29:59.275Z,15.46
2023-05-22T15:32:45.902Z,16.16
2023-05-22T15:35:32.376Z,16.84
2023-05-22T15:38:20.161Z,17.31
2023-05-22T15:41:06.933Z,18.13
2023-05-22T15:43:53.535Z,18.35
2023-05-22T15:46:39.874Z,18.85
2023-05-22T15:49:27.922Z,18.90
2023-05-22T15:52:16.601Z,18.98
2023-05-22T15:55:03.108Z,19.26
2023-05-22T15:57:49.687Z,19.80
2023-05-22T16:00:41.062Z,19.86
2023-05-22T16:03:28.120Z,19.71
2023-05-22T16:06:14.651Z,19.86
2023-05-22T16:09:01.148Z,20.04
2023-05-22T16:11:47.921Z,19.47
2023-05-22T16:14:34.287Z,19.51
2023-05-22T16:17:20.930Z,18.88
2023-05-22T16:20:08.561Z,19.15
2023-05-22T16:22:55.326Z,19.33
2023-05-22T16:25:42.099Z,18.72
2023-05-22T16:28:29.103Z,17.61
2023-05-22T16:31:19.354Z,17.81
2023-05-22T16:34:06.027Z,18.10
2023-05-22T16:36:52.577Z,18.68
2023-05-22T16:39:41.409Z,19.14
2023-05-22T16:42:28.354Z,19.50
2023-05-22T16:45:14.974Z,19.18
2023-05-22T16:48:01.795Z,19.32
2023-05-22T16:50:48.538Z,19.49
2023-05-22T16:53:38.200Z,19.99
2023-05-22T16:56:24.985Z,20.55
2023-05-22T16:59:11.591Z,20.89
2023-05-22T17:01:58.365Z,21.23
2023-05-22T17:04:44.966Z,20.38
2023-05-22T17:07:31.745Z,19.56
2023-05-22T17:10:18.059Z,19.68
2023-05-22T17:13:04.923Z,20.36
2023-05-22T17:15:51.475Z,20.94
2023-05-22T17:18:38.097Z,21.40
2023-05-22T17:21:24.978Z,22.11
2023-05-22T17:24:14.676Z,22.45
2023-05-22T17:27:03.425Z,22.88
2023-05-22T17:29:50.010Z,23.41
2023-05-22T17:32:36.692Z,23.80
2023-05-22T17:35:23.435Z,24.08
2023-05-22T17:38:10.112Z,24.23
2023-05-22T17:40:56.557Z,24.57
2023-05-22T17:43:42.969Z,24.74
2023-05-22T17:46:29.576Z,24.92
2023-05-22T17:49:16.241Z,25.57
2023-05-22T17:52:03.196Z,25.68
2023-05-22T17:54:50.644Z,25.95
2023-05-22T17:57:37.312Z,26.38
2023-05-22T18:00:23.832Z,26.65
2023-05-22T18:03:10.828Z,26.90
2023-05-22T18:05:57.666Z,27.09
2023-05-22T18:08:43.899Z,27.31
2023-05-22T18:11:30.615Z,27.63
2023-05-22T18:14:17.095Z,27.88
2023-05-22T18:17:04.595Z,28.15
2023-05-22T18:19:51.143Z,28.45
2023-05-22T18:22:39.258Z,28.61
2023-05-22T18:25:25.725Z,28.95
2023-05-22T18:28:12.562Z,29.39
2023-05-22T18:30:59.422Z,29.62
2023-05-22T18:33:46.681Z,29.76
2023-05-22T18:36:34.112Z,30.10
2023-05-22T18:39:20.886Z,30.30
2023-05-22T18:42:07.780Z,30.60
2023-05-22T18:44:53.950Z,31.00
2023-05-22T18:47:41.274Z,31.37
2023-05-22T18:50:27.690Z,31.91
2023-05-22T18:53:14.756Z,32.31
2023-05-22T18:56:01.336Z,33.16
2023-05-22T18:58:47.632Z,33.63
2023-05-22T19:01:34.261Z,33.69
2023-05-22T19:04:21.098Z,33.99
2023-05-22T19:07:07.981Z,34.70
2023-05-22T19:09:54.568Z,35.03
2023-05-22T19:12:41.393Z,35.46
2023-05-22T19:15:27.585Z,35.98
2023-05-22T19:18:13.942Z,36.30
2023-05-22T19:21:00.480Z,36.71
2023-05-22T19:23:48.456Z,37.11
2023-05-22T19:26:35.347Z,37.45
2023-05-22T19:29:21.979Z,37.86
2023-05-22T19:32:08.359Z,38.21
2023-05-22T19:34:54.746Z,38.97
2023-05-22T19:37:41.224Z,39.05
2023-05-22T19:40:27.885Z,39.42
2023-05-22T19:43:14.423Z,39.94
2023-05-22T19:46:00.999Z,40.21
2023-05-22T19:48:47.719Z,40.68
2023-05-22T19:51:34.018Z,41.10
2023-05-22T19:54:20.764Z,41.41
2023-05-22T19:57:07.290Z,42.19
2023-05-22T19:59:54.429Z,42.22
2023-05-22T20:02:40.962Z,42.48
2023-05-22T20:05:27.598Z,42.78
2023-05-22T20:08:14.326Z,43.07
2023-05-22T20:11:00.600Z,43.28
2023-05-22T20:13:46.957Z,43.73
2023-05-22T20:16:33.586Z,43.72
2023-05-22T20:19:20.513Z,44.21
2023-05-22T20:22:07.213Z,44.11
2023-05-22T20:24:54.316Z,44.19
2023-05-22T20:27:40.938Z,44.58
2023-05-22T20:30:27.689Z,45.11
2023-05-22T20:33:14.469Z,45.17
2023-05-22T20:36:01.517Z,45.23
2023-05-22T20:38:48.608Z,45.80
2023-05-22T20:41:34.890Z,46.17
2023-05-22T20:44:24.769Z,46.12
2023-05-22T20:47:10.976Z,46.17
2023-05-22T20:49:57.659Z,46.61
2023-05-22T20:52:45.857Z,46.70
2023-05-22T20:55:35.729Z,46.78
2023-05-22T20:58:23.253Z,47.05
2023-05-22T21:01:09.956Z,47.38
2023-05-22T21:03:56.891Z,47.74
2023-05-22T21:06:43.579Z,47.83
2023-05-22T21:09:30.201Z,48.01
2023-05-22T21:12:16.832Z,48.04
2023-05-22T21:15:03.184Z,48.34
2023-05-22T21:17:49.462Z,48.95
2023-05-22T21:20:36.093Z,49.27
2023-05-22T21:23:24.475Z,49.68
2023-05-22T21:26:11.431Z,49.67
2023-05-22T21:28:57.950Z,49.77
2023-05-22T21:31:44.767Z,50.02
2023-05-22T21:34:31.351Z,50.50
2023-05-22T21:37:17.847Z,50.89
2023-05-22T21:40:04.758Z,51.25
2023-05-22T21:42:51.489Z,51.36
2023-05-22T21:45:38.914Z,51.53
2023-05-22T21:48:25.582Z,51.92
2023-05-22T21:51:12.210Z,52.18
2023-05-22T21:53:58.870Z,52.27
2023-05-22T21:56:45.489Z,52.56
2023-05-22T21:59:32.177Z,52.73
2023-05-22T22:02:18.907Z,52.87
2023-05-22T22:05:06.441Z,53.20
2023-05-22T22:07:52.762Z,52.92
2023-05-22T22:10:39.671Z,53.51
2023-05-22T22:13:26.500Z,53.56
2023-05-22T22:16:12.918Z,53.99
2023-05-22T22:19:01.196Z,53.84
2023-05-22T22:21:48.223Z,54.30
2023-05-22T22:24:34.457Z,54.70
2023-05-22T22:27:21.006Z,54.69
2023-05-22T22:30:08.937Z,55.03
2023-05-22T22:32:55.776Z,55.34
2023-05-22T22:35:43.174Z,55.82
2023-05-22T22:38:32.856Z,55.56
2023-05-22T22:41:19.314Z,55.96
2023-05-22T22:44:06.058Z,55.88
2023-05-22T22:46:52.529Z,56.03
2023-05-22T22:49:39.033Z,56.55
2023-05-22T22:52:25.558Z,56.18
2023-05-22T22:55:12.259Z,57.03
2023-05-22T22:57:59.695Z,56.88
2023-05-22T23:00:46.179Z,57.12
2023-05-22T23:03:33.075Z,56.89
2023-05-22T23:06:19.518Z,57.24
2023-05-22T23:09:06.109Z,57.77
2023-05-22T23:11:52.935Z,57.49
2023-05-22T23:14:39.728Z,57.69
2023-05-22T23:17:27.540Z,58.22
2023-05-22T23:20:14.383Z,58.15
2023-05-22T23:23:01.085Z,58.59
2023-05-22T23:25:47.830Z,58.20
2023-05-22T23:28:34.288Z,58.23
2023-05-22T23:31:26.255Z,58.33
2023-05-22T23:34:13.148Z,58.79
2023-05-22T23:36:59.670Z,58.76
2023-05-22T23:39:46.099Z,58.91
2023-05-22T23:42:32.911Z,59.04
2023-05-22T23:45:19.546Z,59.04
2023-05-22T23:48:05.980Z,59.18
2023-05-22T23:50:52.354Z,59.34
2023-05-22T23:53:38.949Z,59.49
2023-05-22T23:56:25.175Z,59.76
2023-05-22T23:59:12.018Z,59.82
